createdAt,value
2022-10-22T00:00:29.437Z,100317.57
2022-10-22T00:02:59.779Z,100311.13
2022-10-22T00:05:11.777Z,100303.13
2022-10-22T00:07:23.289Z,100290.02
2022-10-22T00:09:33.221Z,100275.42
2022-10-22T00:11:43.484Z,100268.95
2022-10-22T00:13:53.810Z,100275.93
2022-10-22T00:16:03.724Z,100273.34
2022-10-22T00:18:13.935Z,100272.48
2022-10-22T00:20:24.457Z,100262.27
2022-10-22T00:22:35.064Z,100253.82
2022-10-22T00:24:45.274Z,100246.13
2022-10-22T00:26:55.404Z,100237.23
2022-10-22T00:29:05.417Z,100236.72
2022-10-22T00:31:16.178Z,100228.23
2022-10-22T00:33:26.377Z,100225.10
2022-10-22T00:35:36.911Z,100213.00
2022-10-22T00:37:47.823Z,100211.75
2022-10-22T00:39:58.483Z,100201.06
2022-10-22T00:42:09.582Z,100192.16
2022-10-22T00:44:58.159Z,100187.52
2022-10-22T00:47:09.275Z,100176.93
2022-10-22T00:49:22.367Z,100168.34
2022-10-22T00:51:36.043Z,100166.56
2022-10-22T00:53:49.771Z,100165.28
2022-10-22T00:56:00.665Z,100161.77
2022-10-22T00:58:10.886Z,100148.90
2022-10-22T01:00:21.872Z,100140.83
2022-10-22T01:02:31.851Z,100133.45
2022-10-22T01:04:42.125Z,100120.68
2022-10-22T01:06:52.728Z,100115.63
2022-10-22T01:09:12.693Z,100114.27
2022-10-22T01:11:28.702Z,100105.94
2022-10-22T01:13:49.764Z,100099.06
2022-10-22T01:16:07.896Z,100089.11
2022-10-22T01:18:24.470Z,100084.77
2022-10-22T01:20:56.922Z,100080.19
2022-10-22T01:23:21.768Z,100080.80
2022-10-22T01:25:37.466Z,100073.52
2022-10-22T01:28:03.632Z,100065.39
2022-10-22T01:30:16.389Z,100068.66
2022-10-22T01:32:28.839Z,100056.35
2022-10-22T01:34:41.566Z,100055.87
2022-10-22T01:36:50.219Z,100048.77
2022-10-22T01:39:02.834Z,100038.35
2022-10-22T01:41:11.623Z,100029.80
2022-10-22T01:43:21.656Z,100025.71
2022-10-22T01:45:35.326Z,100016.56
2022-10-22T01:47:56.862Z,100005.52
2022-10-22T01:50:25.918Z,99992.46
2022-10-22T01:52:49.872Z,99982.39
2022-10-22T01:55:13.950Z,99974.10
2022-10-22T01:57:31.999Z,99956.17
2022-10-22T01:59:52.700Z,99952.16
2022-10-22T02:02:07.018Z,99943.52
2022-10-22T02:04:23.071Z,99939.65
2022-10-22T02:06:35.841Z,99931.40
2022-10-22T02:08:47.299Z,99919.19
2022-10-22T02:10:59.712Z,99910.91
2022-10-22T02:13:16.134Z,99902.45
2022-10-22T02:15:29.562Z,99896.14
2022-10-22T02:17:42.083Z,99891.40
2022-10-22T02:19:57.453Z,99886.66
2022-10-22T02:22:08.143Z,99881.04
2022-10-22T02:24:18.471Z,99888.02
2022-10-22T02:26:35.011Z,99894.76
2022-10-22T02:28:54.179Z,99888.56
2022-10-22T02:31:09.809Z,99875.53
2022-10-22T02:33:24.431Z,99884.13
2022-10-22T02:35:35.453Z,99891.25
2022-10-22T02:37:46.406Z,99904.41
2022-10-22T02:39:58.029Z,99938.05
2022-10-22T02:42:08.702Z,99955.21
2022-10-22T02:44:22.478Z,99964.95
2022-10-22T02:46:35.216Z,99953.60
2022-10-22T02:48:46.189Z,99940.73
2022-10-22T02:50:56.938Z,99931.48
2022-10-22T02:53:07.001Z,99940.26
2022-10-22T02:55:17.080Z,99965.64
2022-10-22T02:57:27.301Z,99995.29
2022-10-22T02:59:38.109Z,99997.29
2022-10-22T03:01:50.782Z,100013.57
2022-10-22T03:04:00.953Z,100021.67
2022-10-22T03:06:11.888Z,100032.25
2022-10-22T03:08:22.133Z,100046.77
2022-10-22T03:10:33.330Z,100058.16
2022-10-22T03:12:44.548Z,100059.71
2022-10-22T03:14:54.703Z,100067.48
2022-10-22T03:17:04.986Z,100080.23
2022-10-22T03:19:15.361Z,100094.05
2022-10-22T03:21:34.010Z,100108.95
2022-10-22T03:23:45.690Z,100118.23
2022-10-22T03:25:55.900Z,100129.49
2022-10-22T03:28:09.835Z,100149.20
2022-10-22T03:30:19.991Z,100158.23
2022-10-22T03:32:30.097Z,100172.32
2022-10-22T03:34:40.245Z,100189.95
2022-10-22T03:36:51.047Z,100203.45
2022-10-22T03:39:01.152Z,100210.70
2022-10-22T03:41:11.812Z,100227.36
2022-10-22T03:43:22.135Z,100243.29
2022-10-22T03:45:32.177Z,100252.46
2022-10-22T03:47:42.678Z,100249.35
2022-10-22T03:49:53.309Z,100262.96
2022-10-22T03:52:07.006Z,100282.61
2022-10-22T03:54:20.776Z,100285.17
2022-10-22T03:56:30.908Z,100289.77
2022-10-22T03:58:41.740Z,100296.02
2022-10-22T04:00:52.146Z,100301.02
2022-10-22T04:03:02.626Z,100304.17
2022-10-22T04:07:24.183Z,100314.06
2022-10-22T04:09:35.237Z,100319.88
2022-10-22T04:11:45.512Z,100328.80
2022-10-22T04:13:55.558Z,100338.38
2022-10-22T04:16:13.724Z,100350.99
2022-10-22T04:18:25.705Z,100367.59
2022-10-22T04:20:35.747Z,100380.33
2022-10-22T04:22:45.725Z,100395.11
2022-10-22T04:24:56.884Z,100397.59
2022-10-22T04:27:07.367Z,100406.90
2022-10-22T04:29:17.455Z,100409.19
2022-10-22T04:31:28.782Z,100420.78
2022-10-22T04:33:39.072Z,100414.79
2022-10-22T04:35:49.768Z,100418.41
2022-10-22T04:38:00.504Z,100421.04
2022-10-22T04:40:12.955Z,100423.86
2022-10-22T04:42:20.608Z,100422.08
2022-10-22T04:44:30.929Z,100421.23
2022-10-22T04:46:41.047Z,100423.73
2022-10-22T04:48:51.096Z,100425.06
2022-10-22T04:51:03.424Z,100425.68
2022-10-22T04:53:13.567Z,100420.30
2022-10-22T04:55:23.983Z,100420.08
2022-10-22T04:57:35.900Z,100418.79
2022-10-22T04:59:46.847Z,100417.61
2022-10-22T05:01:56.944Z,100413.52
2022-10-22T05:04:08.516Z,100425.19
2022-10-22T05:06:19.005Z,100428.70
2022-10-22T05:08:28.934Z,100434.60
2022-10-22T05:10:39.123Z,100437.21
2022-10-22T05:12:49.445Z,100438.80
2022-10-22T05:14:59.577Z,100438.47
2022-10-22T05:17:09.693Z,100443.45
2022-10-22T05:19:24.475Z,100441.98
2022-10-22T05:21:34.662Z,100447.84
2022-10-22T05:23:45.312Z,100451.00
2022-10-22T05:25:55.414Z,100466.30
2022-10-22T05:28:05.566Z,100480.92
2022-10-22T05:30:19.443Z,100493.63
2022-10-22T05:32:29.693Z,100499.73
2022-10-22T05:34:39.957Z,100501.62
2022-10-22T05:36:50.627Z,100510.66
2022-10-22T05:39:01.416Z,100514.98
2022-10-22T05:41:13.552Z,100517.52
2022-10-22T05:43:21.904Z,100518.14
2022-10-22T05:45:31.904Z,100521.75
2022-10-22T05:47:42.018Z,100524.37
2022-10-22T05:49:52.104Z,100528.38
2022-10-22T05:52:02.218Z,100530.81
2022-10-22T05:54:17.892Z,100536.04
2022-10-22T05:56:29.056Z,100537.61
2022-10-22T05:58:40.149Z,100541.07
2022-10-22T06:00:50.300Z,100541.38
2022-10-22T06:03:00.447Z,100543.31
2022-10-22T06:05:11.255Z,100547.80
2022-10-22T06:07:21.236Z,100551.66
2022-10-22T06:09:33.946Z,100554.89
2022-10-22T06:11:44.013Z,100554.49
2022-10-22T06:13:56.509Z,100561.04
2022-10-22T06:16:04.214Z,100566.95
2022-10-22T06:18:14.287Z,100565.73
2022-10-22T06:20:24.299Z,100567.23
2022-10-22T06:22:35.373Z,100573.47
2022-10-22T06:24:45.553Z,100571.48
2022-10-22T06:26:56.128Z,100574.02
2022-10-22T06:29:06.252Z,100575.05
2022-10-22T06:31:16.515Z,100580.12
2022-10-22T06:33:26.555Z,100577.05
2022-10-22T06:35:36.501Z,100577.09
2022-10-22T06:37:47.926Z,100575.13
2022-10-22T06:39:57.993Z,100577.79
2022-10-22T06:42:08.332Z,100587.34
2022-10-22T06:44:20.619Z,100590.85
2022-10-22T06:46:32.440Z,100587.91
2022-10-22T06:48:42.631Z,100585.35
2022-10-22T06:50:53.072Z,100587.21
2022-10-22T06:53:03.880Z,100590.21
2022-10-22T06:55:14.592Z,100587.95
2022-10-22T06:57:24.565Z,100585.20
2022-10-22T06:59:34.949Z,100587.73
2022-10-22T07:01:44.921Z,100587.30
2022-10-22T07:03:56.566Z,100583.11
2022-10-22T07:06:08.718Z,100581.98
2022-10-22T07:08:19.747Z,100583.72
2022-10-22T07:10:30.714Z,100585.70
2022-10-22T07:12:41.278Z,100587.80
2022-10-22T07:14:52.997Z,100581.53
2022-10-22T07:17:03.227Z,100572.58
2022-10-22T07:19:13.565Z,100569.56
2022-10-22T07:21:24.126Z,100579.52
2022-10-22T07:23:34.530Z,100581.65
2022-10-22T07:25:45.035Z,100584.21
2022-10-22T07:27:55.087Z,100585.33
2022-10-22T07:30:05.771Z,100586.08
2022-10-22T07:32:17.317Z,100587.79
2022-10-22T07:34:29.898Z,100586.15
2022-10-22T07:36:40.079Z,100588.48
2022-10-22T07:38:51.690Z,100582.38
2022-10-22T07:41:02.225Z,100585.04
2022-10-22T07:43:12.444Z,100582.27
2022-10-22T07:45:22.632Z,100577.05
2022-10-22T07:47:32.701Z,100575.79
2022-10-22T07:49:44.305Z,100576.95
2022-10-22T07:51:54.242Z,100575.95
2022-10-22T07:54:04.621Z,100577.58
2022-10-22T07:56:14.799Z,100576.52
2022-10-22T07:58:25.769Z,100576.06
2022-10-22T08:00:36.086Z,100571.63
2022-10-22T08:02:46.445Z,100565.84
2022-10-22T08:04:57.619Z,100566.23
2022-10-22T08:07:07.697Z,100557.08
2022-10-22T08:09:17.606Z,100555.50
2022-10-22T08:11:28.817Z,100553.56
2022-10-22T08:13:42.758Z,100556.01
2022-10-22T08:15:57.518Z,100550.30
2022-10-22T08:18:08.663Z,100547.83
2022-10-22T08:20:18.896Z,100548.38
2022-10-22T08:22:28.800Z,100546.63
2022-10-22T08:24:39.058Z,100542.59
2022-10-22T08:26:49.167Z,100540.84
2022-10-22T08:29:00.144Z,100538.52
2022-10-22T08:31:10.407Z,100538.23
2022-10-22T08:33:20.944Z,100535.63
2022-10-22T08:35:31.238Z,100547.16
2022-10-22T08:37:41.573Z,100552.01
2022-10-22T08:39:51.850Z,100550.59
2022-10-22T08:42:16.394Z,100541.99
2022-10-22T08:44:51.854Z,100540.95
2022-10-22T08:47:20.057Z,100543.35
2022-10-22T08:49:38.412Z,100544.95
2022-10-22T08:51:51.572Z,100541.82
2022-10-22T08:54:21.365Z,100545.11
2022-10-22T08:56:32.485Z,100543.70
2022-10-22T08:58:51.181Z,100551.33
2022-10-22T09:01:05.172Z,100554.77
2022-10-22T09:03:44.209Z,100556.75
2022-10-22T09:06:03.791Z,100559.40
2022-10-22T09:08:17.454Z,100566.41
2022-10-22T09:10:34.822Z,100561.67
2022-10-22T09:12:45.273Z,100585.95
2022-10-22T09:14:55.626Z,100609.68
2022-10-22T09:17:28.235Z,100599.66
2022-10-22T09:19:49.487Z,100596.48
2022-10-22T09:22:10.310Z,100588.73
2022-10-22T09:24:29.544Z,100596.52
2022-10-22T09:26:43.987Z,100600.98
2022-10-22T09:28:56.176Z,100607.15
2022-10-22T09:31:11.209Z,100605.66
2022-10-22T09:33:26.904Z,100603.96
2022-10-22T09:35:45.759Z,100597.98
2022-10-22T09:37:58.873Z,100592.75
2022-10-22T09:40:16.281Z,100593.36
2022-10-22T09:42:27.052Z,100588.96
2022-10-22T09:44:42.641Z,100592.40
2022-10-22T09:46:55.209Z,100594.09
2022-10-22T09:49:12.873Z,100592.99
2022-10-22T09:51:27.667Z,100597.23
2022-10-22T09:53:43.788Z,100600.33
2022-10-22T09:55:59.517Z,100599.09
2022-10-22T09:58:15.354Z,100589.22
2022-10-22T10:00:27.125Z,100581.61
2022-10-22T10:02:39.171Z,100576.55
2022-10-22T10:04:52.297Z,100577.20
2022-10-22T10:07:02.775Z,100579.09
2022-10-22T10:09:20.054Z,100582.22
2022-10-22T10:11:38.544Z,100584.64
2022-10-22T10:13:55.188Z,100589.09
2022-10-22T10:16:17.404Z,100587.82
2022-10-22T10:18:41.832Z,100587.54
2022-10-22T10:21:02.432Z,100594.28
2022-10-22T10:23:24.534Z,100596.02
2022-10-22T10:25:51.210Z,100593.00
2022-10-22T10:28:16.843Z,100591.38
2022-10-22T10:30:27.242Z,100600.20
2022-10-22T10:33:05.292Z,100604.42
2022-10-22T10:35:24.163Z,100605.20
2022-10-22T10:37:39.057Z,100604.23
2022-10-22T10:40:10.034Z,100605.14
2022-10-22T10:42:29.386Z,100605.66
2022-10-22T10:45:04.882Z,100603.32
2022-10-22T10:47:31.776Z,100610.33
2022-10-22T10:49:45.392Z,100611.88
2022-10-22T10:52:03.729Z,100611.01
2022-10-22T10:54:35.018Z,100614.36
2022-10-22T10:56:52.811Z,100613.33
2022-10-22T10:59:18.671Z,100612.18
2022-10-22T11:01:36.960Z,100616.69
2022-10-22T11:04:02.445Z,100615.96
2022-10-22T11:06:17.274Z,100622.33
2022-10-22T11:08:31.639Z,100628.98
2022-10-22T11:10:47.234Z,100626.92
2022-10-22T11:12:59.968Z,100609.45
2022-10-22T11:15:18.965Z,100603.63
2022-10-22T11:17:34.423Z,100601.27
2022-10-22T11:19:54.681Z,100604.58
2022-10-22T11:22:13.699Z,100606.85
2022-10-22T11:24:30.163Z,100610.08
2022-10-22T11:26:47.538Z,100608.06
2022-10-22T11:29:00.411Z,100611.27
2022-10-22T11:31:17.302Z,100609.48
2022-10-22T11:33:30.970Z,100612.23
2022-10-22T11:35:44.534Z,100612.81
2022-10-22T11:37:57.096Z,100614.09
2022-10-22T11:40:07.524Z,100611.62
2022-10-22T11:42:23.425Z,100612.95
2022-10-22T11:44:35.304Z,100616.61
2022-10-22T11:46:49.183Z,100615.95
2022-10-22T11:49:27.225Z,100612.91
2022-10-22T11:51:43.822Z,100612.24
2022-10-22T11:54:00.646Z,100607.96
2022-10-22T11:56:27.069Z,100607.02
2022-10-22T11:58:45.223Z,100604.91
2022-10-22T12:00:55.719Z,100601.36
2022-10-22T12:03:18.535Z,100606.31
2022-10-22T12:05:48.528Z,100604.30
2022-10-22T12:08:03.109Z,100606.52
2022-10-22T12:10:22.824Z,100612.00
2022-10-22T12:12:41.576Z,100609.82
2022-10-22T12:14:59.717Z,100608.30
2022-10-22T12:17:14.679Z,100623.64
2022-10-22T12:19:31.797Z,100623.54
2022-10-22T12:21:44.195Z,100625.19
2022-10-22T12:23:55.723Z,100633.80
2022-10-22T12:26:08.601Z,100636.45
2022-10-22T12:28:18.505Z,100643.04
2022-10-22T12:30:32.231Z,100651.80
2022-10-22T12:32:43.606Z,100652.30
2022-10-22T12:34:54.867Z,100654.16
2022-10-22T12:37:09.300Z,100658.09
2022-10-22T12:39:22.051Z,100662.77
2022-10-22T12:41:37.297Z,100666.95
2022-10-22T12:43:47.159Z,100655.59
2022-10-22T12:45:58.754Z,100660.23
2022-10-22T12:48:16.718Z,100661.48
2022-10-22T12:50:33.418Z,100658.90
2022-10-22T12:52:44.261Z,100669.48
2022-10-22T12:54:55.670Z,100666.33
2022-10-22T12:57:06.008Z,100663.85
2022-10-22T12:59:22.690Z,100663.17
2022-10-22T13:01:38.333Z,100670.33
2022-10-22T13:03:50.435Z,100682.72
2022-10-22T13:06:13.593Z,100687.52
2022-10-22T13:08:28.902Z,100672.94
2022-10-22T13:10:42.159Z,100674.54
2022-10-22T13:12:56.680Z,100664.63
2022-10-22T13:15:25.175Z,100664.02
2022-10-22T13:17:51.316Z,100669.55
2022-10-22T13:20:07.246Z,100679.27
2022-10-22T13:22:35.968Z,100682.80
2022-10-22T13:24:53.132Z,100687.93
2022-10-22T13:27:05.176Z,100691.48
2022-10-22T13:29:20.976Z,100694.84
2022-10-22T13:31:33.931Z,100695.60
2022-10-22T13:33:46.029Z,100700.23
2022-10-22T13:35:54.507Z,100701.02
2022-10-22T13:38:05.242Z,100704.37
2022-10-22T13:40:18.653Z,100710.69
2022-10-22T13:42:29.005Z,100717.98
2022-10-22T13:44:39.776Z,100714.65
2022-10-22T13:46:50.717Z,100716.11
2022-10-22T13:49:02.049Z,100719.94
2022-10-22T13:51:19.612Z,100723.79
2022-10-22T13:53:31.640Z,100733.85
2022-10-22T13:55:41.732Z,100740.31
2022-10-22T13:57:52.839Z,100738.64
2022-10-22T14:00:02.952Z,100727.81
2022-10-22T14:02:25.589Z,100719.73
2022-10-22T14:04:38.530Z,100720.85
2022-10-22T14:06:48.682Z,100718.02
2022-10-22T14:09:01.221Z,100722.49
2022-10-22T14:11:10.940Z,100728.98
2022-10-22T14:13:21.808Z,100729.06
2022-10-22T14:15:36.963Z,100739.48
2022-10-22T14:17:45.597Z,100749.48
2022-10-22T14:19:55.650Z,100751.91
2022-10-22T14:22:05.847Z,100754.54
2022-10-22T14:24:16.281Z,100756.05
2022-10-22T14:26:30.820Z,100756.81
2022-10-22T14:29:04.346Z,100758.28
2022-10-22T14:31:13.682Z,100754.61
2022-10-22T14:33:28.952Z,100753.79
2022-10-22T14:35:41.736Z,100754.58
2022-10-22T14:37:52.319Z,100752.30
2022-10-22T14:40:03.237Z,100750.67
2022-10-22T14:42:17.253Z,100750.41
2022-10-22T14:44:27.151Z,100747.05
2022-10-22T14:46:37.471Z,100741.15
2022-10-22T14:48:47.745Z,100746.89
2022-10-22T14:50:59.013Z,100754.21
2022-10-22T14:53:09.231Z,100753.13
2022-10-22T14:55:21.617Z,100754.06
2022-10-22T14:57:31.975Z,100758.66
2022-10-22T14:59:41.949Z,100760.61
2022-10-22T15:01:52.237Z,100763.45
2022-10-22T15:04:02.290Z,100760.48
2022-10-22T15:06:13.549Z,100762.96
2022-10-22T15:08:23.672Z,100767.72
2022-10-22T15:10:33.902Z,100764.19
2022-10-22T15:12:44.025Z,100775.01
2022-10-22T15:14:54.215Z,100774.43
2022-10-22T15:17:04.369Z,100773.84
2022-10-22T15:19:15.507Z,100780.20
2022-10-22T15:21:26.593Z,100781.15
2022-10-22T15:23:39.801Z,100779.09
2022-10-22T15:25:49.785Z,100784.99
2022-10-22T15:28:07.441Z,100786.32
2022-10-22T15:30:19.758Z,100790.48
2022-10-22T15:32:30.340Z,100797.02
2022-10-22T15:34:42.218Z,100804.52
2022-10-22T15:36:52.318Z,100798.40
2022-10-22T15:39:02.365Z,100803.32
2022-10-22T15:41:15.017Z,100804.06
2022-10-22T15:43:26.459Z,100801.55
2022-10-22T15:45:36.610Z,100805.36
2022-10-22T15:47:50.131Z,100804.04
2022-10-22T15:50:00.394Z,100814.06
2022-10-22T15:52:10.801Z,100819.38
2022-10-22T15:54:23.030Z,100813.09
2022-10-22T15:56:35.566Z,100815.07
2022-10-22T15:58:43.872Z,100816.30
2022-10-22T16:00:54.029Z,100815.23
2022-10-22T16:03:05.182Z,100814.17
2022-10-22T16:05:15.774Z,100816.86
2022-10-22T16:07:26.223Z,100819.45
2022-10-22T16:09:36.787Z,100819.14
2022-10-22T16:11:48.397Z,100817.08
2022-10-22T16:14:02.281Z,100826.24
2022-10-22T16:16:13.142Z,100825.66
2022-10-22T16:18:24.227Z,100830.05
2022-10-22T16:20:34.187Z,100831.70
2022-10-22T16:22:45.241Z,100831.27
2022-10-22T16:24:55.322Z,100833.72
2022-10-22T16:27:05.476Z,100835.17
2022-10-22T16:29:15.744Z,100838.32
2022-10-22T16:31:25.957Z,100839.02
2022-10-22T16:33:41.504Z,100836.48
2022-10-22T16:35:56.979Z,100841.04
2022-10-22T16:38:04.826Z,100842.65
2022-10-22T16:40:17.163Z,100843.23
2022-10-22T16:42:27.057Z,100847.02
2022-10-22T16:44:38.765Z,100847.94
2022-10-22T16:46:49.142Z,100850.60
2022-10-22T16:48:59.306Z,100849.44
2022-10-22T16:51:12.510Z,100850.48
2022-10-22T16:53:22.731Z,100847.94
2022-10-22T16:55:33.124Z,100859.94
2022-10-22T16:57:43.467Z,100857.52
2022-10-22T16:59:53.699Z,100857.17
2022-10-22T17:04:19.000Z,100862.48
2022-10-22T17:06:30.173Z,100861.81
2022-10-22T17:08:41.362Z,100864.30
2022-10-22T17:10:51.451Z,100865.30
2022-10-22T17:13:02.536Z,100861.77
2022-10-22T17:15:14.176Z,100865.15
2022-10-22T17:17:24.236Z,100867.89
2022-10-22T17:19:34.692Z,100868.69
2022-10-22T17:21:45.243Z,100872.48
2022-10-22T17:23:58.685Z,100873.36
2022-10-22T17:26:10.473Z,100870.27
2022-10-22T17:28:20.435Z,100871.98
2022-10-22T17:30:30.880Z,100866.30
2022-10-22T17:32:42.499Z,100863.27
2022-10-22T17:34:55.417Z,100869.85
2022-10-22T17:37:08.218Z,100872.99
2022-10-22T17:39:20.559Z,100868.16
2022-10-22T17:41:32.501Z,100872.80
2022-10-22T17:43:42.711Z,100870.84
2022-10-22T17:45:53.077Z,100874.14
2022-10-22T17:48:03.318Z,100870.91
2022-10-22T17:50:14.682Z,100872.04
2022-10-22T17:52:24.645Z,100874.11
2022-10-22T17:54:36.183Z,100877.34
2022-10-22T17:56:46.350Z,100878.14
2022-10-22T17:58:57.605Z,100881.48
2022-10-22T18:01:08.403Z,100877.57
2022-10-22T18:03:18.470Z,100881.85
2022-10-22T18:05:30.364Z,100880.48
2022-10-22T18:07:40.484Z,100880.67
2022-10-22T18:09:50.807Z,100881.85
2022-10-22T18:12:03.275Z,100888.51
2022-10-22T18:14:11.237Z,100892.46
2022-10-22T18:16:21.668Z,100894.31
2022-10-22T18:18:31.609Z,100893.36
2022-10-22T18:20:41.774Z,100892.30
2022-10-22T18:22:51.901Z,100896.41
2022-10-22T18:25:02.076Z,100896.39
2022-10-22T18:27:12.495Z,100893.17
2022-10-22T18:29:23.094Z,100896.14
2022-10-22T18:31:33.433Z,100900.32
2022-10-22T18:33:44.938Z,100898.73
2022-10-22T18:35:55.459Z,100898.21
2022-10-22T18:38:05.385Z,100895.21
2022-10-22T18:40:16.750Z,100896.84
2022-10-22T18:42:29.182Z,100896.83
2022-10-22T18:44:42.977Z,100897.52
2022-10-22T18:46:53.107Z,100894.01
2022-10-22T18:49:03.283Z,100891.48
2022-10-22T18:51:16.260Z,100893.69
2022-10-22T18:53:26.457Z,100896.83
2022-10-22T18:55:40.139Z,100903.90
2022-10-22T18:57:50.338Z,100904.23
2022-10-22T19:00:00.539Z,100903.18
2022-10-22T19:02:11.258Z,100900.77
2022-10-22T19:04:21.274Z,100897.09
2022-10-22T19:06:34.430Z,100905.34
2022-10-22T19:08:49.288Z,100902.19
2022-10-22T19:11:02.013Z,100902.70
2022-10-22T19:13:13.245Z,100905.34
2022-10-22T19:15:23.554Z,100900.99
2022-10-22T19:17:34.914Z,100904.77
2022-10-22T19:19:46.011Z,100904.83
2022-10-22T19:21:57.013Z,100900.81
2022-10-22T19:24:08.008Z,100903.62
2022-10-22T19:26:21.988Z,100898.66
2022-10-22T19:28:32.267Z,100899.25
2022-10-22T19:30:45.283Z,100900.45
2022-10-22T19:32:55.326Z,100901.41
2022-10-22T19:35:05.720Z,100901.67
2022-10-22T19:37:15.829Z,100899.84
2022-10-22T19:39:25.771Z,100897.20
2022-10-22T19:41:37.208Z,100894.67
2022-10-22T19:43:50.160Z,100899.77
2022-10-22T19:46:00.268Z,100900.71
2022-10-22T19:48:10.871Z,100898.39
2022-10-22T19:50:21.957Z,100895.51
2022-10-22T19:52:31.994Z,100896.91
2022-10-22T19:54:45.109Z,100893.48
2022-10-22T19:56:56.308Z,100891.63
2022-10-22T19:59:07.332Z,100890.98
2022-10-22T20:01:19.209Z,100889.51
2022-10-22T20:03:29.426Z,100891.94
2022-10-22T20:05:43.356Z,100887.95
2022-10-22T20:07:53.576Z,100891.21
2022-10-22T20:10:03.725Z,100889.79
2022-10-22T20:12:13.914Z,100887.66
2022-10-22T20:14:24.261Z,100883.21
2022-10-22T20:16:36.306Z,100876.69
2022-10-22T20:18:46.631Z,100879.88
2022-10-22T20:20:56.808Z,100877.54
2022-10-22T20:23:09.035Z,100883.66
2022-10-22T20:25:19.437Z,100879.91
2022-10-22T20:27:29.675Z,100884.70
2022-10-22T20:29:41.001Z,100878.77
2022-10-22T20:31:51.595Z,100880.05
2022-10-22T20:34:03.881Z,100872.84
2022-10-22T20:36:16.448Z,100874.46
2022-10-22T20:38:26.552Z,100878.42
2022-10-22T20:40:38.361Z,100876.57
2022-10-22T20:42:50.109Z,100870.41
2022-10-22T20:45:01.526Z,100873.15
2022-10-22T20:47:11.859Z,100874.41
2022-10-22T20:49:22.590Z,100875.80
2022-10-22T20:51:34.355Z,100874.91
2022-10-22T20:53:44.539Z,100870.80
2022-10-22T20:55:57.913Z,100876.20
2022-10-22T20:58:07.978Z,100873.46
2022-10-22T21:00:19.783Z,100875.61
2022-10-22T21:02:30.287Z,100871.11
2022-10-22T21:04:42.763Z,100872.52
2022-10-22T21:06:56.467Z,100869.33
2022-10-22T21:09:06.768Z,100868.41
2022-10-22T21:11:16.817Z,100874.45
2022-10-22T21:13:27.092Z,100877.05
2022-10-22T21:15:37.572Z,100875.58
2022-10-22T21:17:47.689Z,100876.52
2022-10-22T21:19:57.686Z,100876.10
2022-10-22T21:22:07.819Z,100873.77
2022-10-22T21:24:18.306Z,100874.54
2022-10-22T21:26:28.601Z,100875.48
2022-10-22T21:28:40.112Z,100878.07
2022-10-22T21:30:50.674Z,100881.10
2022-10-22T21:33:00.865Z,100879.63
2022-10-22T21:35:11.934Z,100877.91
2022-10-22T21:37:23.270Z,100883.11
2022-10-22T21:39:35.517Z,100886.70
2022-10-22T21:41:47.924Z,100887.41
2022-10-22T21:43:58.029Z,100888.69
2022-10-22T21:46:13.541Z,100889.58
2022-10-22T21:48:24.388Z,100890.81
2022-10-22T21:50:35.177Z,100889.47
2022-10-22T21:52:45.428Z,100888.80
2022-10-22T21:54:55.531Z,100889.31
2022-10-22T21:57:05.581Z,100891.04
2022-10-22T21:59:16.385Z,100895.66
2022-10-22T22:01:27.390Z,100891.56
2022-10-22T22:03:37.892Z,100894.83
2022-10-22T22:05:48.034Z,100899.14
2022-10-22T22:07:58.199Z,100899.48
2022-10-22T22:10:09.508Z,100897.00
2022-10-22T22:12:19.478Z,100895.90
2022-10-22T22:14:29.664Z,100899.64
2022-10-22T22:16:40.326Z,100901.80
2022-10-22T22:18:50.619Z,100897.98
2022-10-22T22:21:01.028Z,100907.80
2022-10-22T22:23:11.290Z,100915.97
2022-10-22T22:25:21.499Z,100919.06
2022-10-22T22:27:31.502Z,100920.66
2022-10-22T22:29:41.746Z,100925.05
2022-10-22T22:31:52.109Z,100923.39
2022-10-22T22:34:06.706Z,100920.29
2022-10-22T22:36:17.130Z,100919.99
2022-10-22T22:38:28.291Z,100922.20
2022-10-22T22:40:39.951Z,100922.17
2022-10-22T22:42:50.217Z,100924.91
2022-10-22T22:45:00.426Z,100929.10
2022-10-22T22:47:10.672Z,100928.27
2022-10-22T22:49:20.724Z,100930.91
2022-10-22T22:51:33.401Z,100929.02
2022-10-22T22:53:43.613Z,100928.76
2022-10-22T22:55:53.708Z,100925.41
2022-10-22T22:58:04.190Z,100928.98
2022-10-22T23:00:16.871Z,100932.70
2022-10-22T23:02:29.613Z,100934.17
2022-10-22T23:04:40.279Z,100936.38
2022-10-22T23:06:50.630Z,100938.60
2022-10-22T23:09:01.466Z,100939.48
2022-10-22T23:11:14.933Z,100943.52
2022-10-22T23:13:25.021Z,100943.52
2022-10-22T23:15:34.951Z,100937.10
2022-10-22T23:17:45.128Z,100937.91
2022-10-22T23:19:55.502Z,100940.05
2022-10-22T23:22:05.619Z,100943.10
2022-10-22T23:24:17.059Z,100945.83
2022-10-22T23:26:29.171Z,100956.61
2022-10-22T23:28:39.390Z,100959.77
2022-10-22T23:30:50.311Z,100958.32
2022-10-22T23:33:00.312Z,100958.69
2022-10-22T23:35:12.062Z,100948.90
2022-10-22T23:37:22.382Z,100947.78
2022-10-22T23:39:32.937Z,100954.46
2022-10-22T23:41:43.014Z,100954.59
2022-10-22T23:43:54.234Z,100954.65
2022-10-22T23:46:04.622Z,100955.19
2022-10-22T23:48:14.702Z,100949.95
2022-10-22T23:50:24.685Z,100939.04
2022-10-22T23:52:34.859Z,100947.02
2022-10-22T23:54:45.134Z,100975.89
2022-10-22T23:56:55.300Z,100977.91
2022-10-22T23:59:06.275Z,100979.03
